sensor_id;sensor_type;location;lat;lon;timestamp;P1;durP1;ratioP1;P2;durP2;ratioP2
55346;SDS011;41218;55.700;38.270;2023-02-26T00:00:16;22.00;;;7.77;;
55346;SDS011;41218;55.700;38.270;2023-02-26T00:05:20;17.90;;;8.07;;
55346;SDS011;41218;55.700;38.270;2023-02-26T00:10:21;23.25;;;9.35;;
55346;SDS011;41218;55.700;38.270;2023-02-26T00:15:21;27.10;;;9.67;;
55346;SDS011;41218;55.700;38.270;2023-02-26T00:20:23;34.45;;;11.60;;
55346;SDS011;41218;55.700;38.270;2023-02-26T00:25:25;31.25;;;11.45;;
55346;SDS011;41218;55.700;38.270;2023-02-26T00:30:25;31.17;;;10.47;;
55346;SDS011;41218;55.700;38.270;2023-02-26T00:35:26;24.75;;;8.60;;
55346;SDS011;41218;55.700;38.270;2023-02-26T00:45:40;18.40;;;7.97;;
55346;SDS011;41218;55.700;38.270;2023-02-26T00:50:55;22.42;;;8.15;;
55346;SDS011;41218;55.700;38.270;2023-02-26T00:56:02;20.48;;;7.70;;
55346;SDS011;41218;55.700;38.270;2023-02-26T01:01:02;20.17;;;7.93;;
55346;SDS011;41218;55.700;38.270;2023-02-26T01:06:03;16.27;;;7.63;;
55346;SDS011;41218;55.700;38.270;2023-02-26T01:11:04;14.27;;;5.95;;
55346;SDS011;41218;55.700;38.270;2023-02-26T01:16:07;15.20;;;6.13;;
55346;SDS011;41218;55.700;38.270;2023-02-26T01:21:13;16.35;;;6.68;;
55346;SDS011;41218;55.700;38.270;2023-02-26T01:26:20;17.85;;;6.72;;
55346;SDS011;41218;55.700;38.270;2023-02-26T01:31:35;16.33;;;6.97;;
55346;SDS011;41218;55.700;38.270;2023-02-26T01:36:43;15.68;;;5.47;;
55346;SDS011;41218;55.700;38.270;2023-02-26T01:41:51;13.35;;;6.05;;
55346;SDS011;41218;55.700;38.270;2023-02-26T01:57:49;10.57;;;4.63;;
55346;SDS011;41218;55.700;38.270;2023-02-26T02:02:53;13.38;;;5.72;;
55346;SDS011;41218;55.700;38.270;2023-02-26T02:07:54;13.45;;;5.15;;
55346;SDS011;41218;55.700;38.270;2023-02-26T02:23:36;10.48;;;4.57;;
55346;SDS011;41218;55.700;38.270;2023-02-26T02:34:10;11.05;;;4.47;;
55346;SDS011;41218;55.700;38.270;2023-02-26T02:44:27;9.73;;;4.45;;
55346;SDS011;41218;55.700;38.270;2023-02-26T02:50:18;8.98;;;3.70;;
55346;SDS011;41218;55.700;38.270;2023-02-26T02:55:11;6.47;;;3.17;;
55346;SDS011;41218;55.700;38.270;2023-02-26T03:00:20;6.82;;;3.35;;
55346;SDS011;41218;55.700;38.270;2023-02-26T03:05:23;5.30;;;2.78;;
55346;SDS011;41218;55.700;38.270;2023-02-26T03:10:24;6.82;;;3.00;;
55346;SDS011;41218;55.700;38.270;2023-02-26T03:15:28;5.80;;;2.67;;
55346;SDS011;41218;55.700;38.270;2023-02-26T03:26:23;4.57;;;2.30;;
55346;SDS011;41218;55.700;38.270;2023-02-26T03:31:42;8.57;;;3.53;;
55346;SDS011;41218;55.700;38.270;2023-02-26T03:36:56;8.43;;;4.00;;
55346;SDS011;41218;55.700;38.270;2023-02-26T03:47:05;10.53;;;4.33;;
55346;SDS011;41218;55.700;38.270;2023-02-26T03:52:10;9.32;;;4.60;;
55346;SDS011;41218;55.700;38.270;2023-02-26T03:57:12;13.35;;;4.90;;
55346;SDS011;41218;55.700;38.270;2023-02-26T04:02:17;10.30;;;4.70;;
55346;SDS011;41218;55.700;38.270;2023-02-26T04:07:21;9.80;;;4.25;;
55346;SDS011;41218;55.700;38.270;2023-02-26T04:12:26;8.55;;;4.18;;
55346;SDS011;41218;55.700;38.270;2023-02-26T04:17:27;8.52;;;3.88;;
55346;SDS011;41218;55.700;38.270;2023-02-26T04:22:28;7.13;;;3.80;;
55346;SDS011;41218;55.700;38.270;2023-02-26T04:27:28;10.80;;;4.03;;
55346;SDS011;41218;55.700;38.270;2023-02-26T04:32:29;6.63;;;3.67;;
55346;SDS011;41218;55.700;38.270;2023-02-26T04:37:29;9.20;;;3.43;;
55346;SDS011;41218;55.700;38.270;2023-02-26T04:42:30;9.37;;;4.27;;
55346;SDS011;41218;55.700;38.270;2023-02-26T04:47:30;7.67;;;3.87;;
55346;SDS011;41218;55.700;38.270;2023-02-26T04:52:31;10.70;;;4.20;;
55346;SDS011;41218;55.700;38.270;2023-02-26T04:57:32;9.63;;;4.63;;
55346;SDS011;41218;55.700;38.270;2023-02-26T05:02:32;10.83;;;4.87;;
55346;SDS011;41218;55.700;38.270;2023-02-26T05:07:33;11.43;;;5.20;;
55346;SDS011;41218;55.700;38.270;2023-02-26T05:12:33;10.63;;;4.67;;
55346;SDS011;41218;55.700;38.270;2023-02-26T05:17:34;13.13;;;5.22;;
55346;SDS011;41218;55.700;38.270;2023-02-26T05:22:38;11.65;;;4.90;;
55346;SDS011;41218;55.700;38.270;2023-02-26T05:27:39;8.82;;;4.10;;
55346;SDS011;41218;55.700;38.270;2023-02-26T05:32:44;9.23;;;4.20;;
55346;SDS011;41218;55.700;38.270;2023-02-26T05:37:45;8.07;;;4.10;;
55346;SDS011;41218;55.700;38.270;2023-02-26T05:42:45;10.20;;;3.63;;
55346;SDS011;41218;55.700;38.270;2023-02-26T05:47:46;8.53;;;4.03;;
55346;SDS011;41218;55.700;38.270;2023-02-26T05:52:46;4.07;;;2.43;;
55346;SDS011;41218;55.700;38.270;2023-02-26T05:57:47;5.07;;;2.67;;
55346;SDS011;41218;55.700;38.270;2023-02-26T06:02:48;4.57;;;2.33;;
55346;SDS011;41218;55.700;38.270;2023-02-26T06:07:48;4.40;;;2.13;;
55346;SDS011;41218;55.700;38.270;2023-02-26T06:12:49;3.60;;;1.92;;
55346;SDS011;41218;55.700;38.270;2023-02-26T06:17:49;1.97;;;0.93;;
55346;SDS011;41218;55.700;38.270;2023-02-26T06:22:50;4.43;;;1.50;;
55346;SDS011;41218;55.700;38.270;2023-02-26T06:27:51;2.60;;;1.20;;
55346;SDS011;41218;55.700;38.270;2023-02-26T06:32:51;2.53;;;1.33;;
55346;SDS011;41218;55.700;38.270;2023-02-26T06:37:52;2.40;;;1.37;;
55346;SDS011;41218;55.700;38.270;2023-02-26T06:42:53;2.00;;;1.10;;
55346;SDS011;41218;55.700;38.270;2023-02-26T06:47:53;2.23;;;1.30;;
55346;SDS011;41218;55.700;38.270;2023-02-26T06:52:54;1.57;;;0.83;;
55346;SDS011;41218;55.700;38.270;2023-02-26T06:57:54;2.30;;;1.07;;
55346;SDS011;41218;55.700;38.270;2023-02-26T07:02:56;2.92;;;1.30;;
55346;SDS011;41218;55.700;38.270;2023-02-26T07:07:57;2.33;;;1.25;;
55346;SDS011;41218;55.700;38.270;2023-02-26T07:12:58;3.20;;;1.53;;
55346;SDS011;41218;55.700;38.270;2023-02-26T07:17:58;2.40;;;1.30;;
55346;SDS011;41218;55.700;38.270;2023-02-26T07:22:59;3.30;;;1.70;;
55346;SDS011;41218;55.700;38.270;2023-02-26T07:27:59;3.33;;;1.90;;
55346;SDS011;41218;55.700;38.270;2023-02-26T07:33:00;4.03;;;2.20;;
55346;SDS011;41218;55.700;38.270;2023-02-26T07:38:00;3.67;;;2.20;;
55346;SDS011;41218;55.700;38.270;2023-02-26T07:43:01;3.70;;;2.20;;
55346;SDS011;41218;55.700;38.270;2023-02-26T07:48:02;3.37;;;2.03;;
55346;SDS011;41218;55.700;38.270;2023-02-26T07:53:03;6.25;;;2.47;;
55346;SDS011;41218;55.700;38.270;2023-02-26T07:58:03;5.13;;;2.27;;
55346;SDS011;41218;55.700;38.270;2023-02-26T08:03:04;3.17;;;1.90;;
55346;SDS011;41218;55.700;38.270;2023-02-26T08:08:04;4.83;;;2.03;;
55346;SDS011;41218;55.700;38.270;2023-02-26T08:13:05;5.10;;;2.10;;
55346;SDS011;41218;55.700;38.270;2023-02-26T08:18:06;3.83;;;2.03;;
55346;SDS011;41218;55.700;38.270;2023-02-26T08:23:06;3.40;;;1.80;;
55346;SDS011;41218;55.700;38.270;2023-02-26T08:28:07;2.73;;;1.37;;
55346;SDS011;41218;55.700;38.270;2023-02-26T08:33:07;3.37;;;1.80;;
55346;SDS011;41218;55.700;38.270;2023-02-26T08:38:08;5.20;;;2.47;;
55346;SDS011;41218;55.700;38.270;2023-02-26T08:43:08;3.10;;;1.60;;
55346;SDS011;41218;55.700;38.270;2023-02-26T08:48:10;2.35;;;1.60;;
55346;SDS011;41218;55.700;38.270;2023-02-26T08:53:11;3.50;;;1.77;;
55346;SDS011;41218;55.700;38.270;2023-02-26T08:58:12;3.07;;;1.37;;
55346;SDS011;41218;55.700;38.270;2023-02-26T09:03:12;4.17;;;1.67;;
55346;SDS011;41218;55.700;38.270;2023-02-26T09:08:14;2.78;;;1.38;;
55346;SDS011;41218;55.700;38.270;2023-02-26T09:13:15;2.03;;;1.30;;
55346;SDS011;41218;55.700;38.270;2023-02-26T09:18:15;3.53;;;1.33;;
55346;SDS011;41218;55.700;38.270;2023-02-26T09:23:16;3.33;;;1.60;;
55346;SDS011;41218;55.700;38.270;2023-02-26T09:28:16;2.60;;;1.40;;
55346;SDS011;41218;55.700;38.270;2023-02-26T09:33:17;2.53;;;1.37;;
55346;SDS011;41218;55.700;38.270;2023-02-26T09:38:18;2.72;;;1.58;;
55346;SDS011;41218;55.700;38.270;2023-02-26T09:48:35;2.47;;;1.33;;
55346;SDS011;41218;55.700;38.270;2023-02-26T09:53:38;1.90;;;1.08;;
55346;SDS011;41218;55.700;38.270;2023-02-26T09:58:40;1.83;;;1.10;;
55346;SDS011;41218;55.700;38.270;2023-02-26T10:14:53;2.40;;;1.23;;
55346;SDS011;41218;55.700;38.270;2023-02-26T10:19:36;2.30;;;1.20;;
55346;SDS011;41218;55.700;38.270;2023-02-26T10:24:49;2.13;;;1.40;;
55346;SDS011;41218;55.700;38.270;2023-02-26T10:30:02;3.85;;;1.13;;
55346;SDS011;41218;55.700;38.270;2023-02-26T10:35:16;1.25;;;0.98;;
55346;SDS011;41218;55.700;38.270;2023-02-26T10:50:35;2.45;;;1.33;;
55346;SDS011;41218;55.700;38.270;2023-02-26T11:01:01;1.55;;;0.88;;
55346;SDS011;41218;55.700;38.270;2023-02-26T11:06:01;1.60;;;0.90;;
55346;SDS011;41218;55.700;38.270;2023-02-26T11:11:04;3.13;;;1.23;;
55346;SDS011;41218;55.700;38.270;2023-02-26T11:16:07;1.95;;;1.15;;
55346;SDS011;41218;55.700;38.270;2023-02-26T11:21:16;1.73;;;1.17;;
55346;SDS011;41218;55.700;38.270;2023-02-26T11:26:18;3.47;;;1.90;;
55346;SDS011;41218;55.700;38.270;2023-02-26T11:31:26;3.85;;;1.50;;
55346;SDS011;41218;55.700;38.270;2023-02-26T11:36:28;1.80;;;0.93;;
55346;SDS011;41218;55.700;38.270;2023-02-26T11:41:34;1.63;;;0.90;;
55346;SDS011;41218;55.700;38.270;2023-02-26T11:46:41;1.85;;;1.17;;
55346;SDS011;41218;55.700;38.270;2023-02-26T11:52:56;1.58;;;1.20;;
55346;SDS011;41218;55.700;38.270;2023-02-26T11:57:41;1.65;;;1.00;;
55346;SDS011;41218;55.700;38.270;2023-02-26T12:02:42;1.50;;;1.00;;
55346;SDS011;41218;55.700;38.270;2023-02-26T12:07:43;2.87;;;1.23;;
55346;SDS011;41218;55.700;38.270;2023-02-26T12:18:10;2.05;;;1.10;;
55346;SDS011;41218;55.700;38.270;2023-02-26T12:34:30;4.10;;;1.77;;
55346;SDS011;41218;55.700;38.270;2023-02-26T12:39:56;2.47;;;1.40;;
55346;SDS011;41218;55.700;38.270;2023-02-26T13:08:00;2.63;;;1.20;;
55346;SDS011;41218;55.700;38.270;2023-02-26T13:12:45;1.63;;;1.10;;
55346;SDS011;41218;55.700;38.270;2023-02-26T13:18:05;2.25;;;1.33;;
55346;SDS011;41218;55.700;38.270;2023-02-26T13:23:19;2.80;;;1.48;;
55346;SDS011;41218;55.700;38.270;2023-02-26T13:33:30;2.53;;;1.17;;
55346;SDS011;41218;55.700;38.270;2023-02-26T13:38:48;9.38;;;1.55;;
55346;SDS011;41218;55.700;38.270;2023-02-26T13:54:54;4.43;;;1.83;;
55346;SDS011;41218;55.700;38.270;2023-02-26T14:10:43;3.42;;;1.77;;
55346;SDS011;41218;55.700;38.270;2023-02-26T14:26:27;3.90;;;1.65;;
55346;SDS011;41218;55.700;38.270;2023-02-26T14:32:21;3.17;;;1.70;;
55346;SDS011;41218;55.700;38.270;2023-02-26T14:37:00;4.55;;;1.60;;
55346;SDS011;41218;55.700;38.270;2023-02-26T14:42:07;4.95;;;2.63;;
55346;SDS011;41218;55.700;38.270;2023-02-26T14:47:12;2.70;;;1.63;;
55346;SDS011;41218;55.700;38.270;2023-02-26T14:58:04;6.07;;;2.65;;
55346;SDS011;41218;55.700;38.270;2023-02-26T15:03:27;6.67;;;3.30;;
55346;SDS011;41218;55.700;38.270;2023-02-26T15:14:33;9.02;;;3.90;;
55346;SDS011;41218;55.700;38.270;2023-02-26T15:25:04;11.27;;;4.88;;
55346;SDS011;41218;55.700;38.270;2023-02-26T15:30:13;10.32;;;4.57;;
55346;SDS011;41218;55.700;38.270;2023-02-26T15:35:16;10.55;;;4.18;;
55346;SDS011;41218;55.700;38.270;2023-02-26T15:40:21;9.07;;;4.10;;
55346;SDS011;41218;55.700;38.270;2023-02-26T15:50:43;11.15;;;5.10;;
55346;SDS011;41218;55.700;38.270;2023-02-26T15:55:47;9.32;;;4.72;;
55346;SDS011;41218;55.700;38.270;2023-02-26T16:00:51;13.00;;;4.70;;
55346;SDS011;41218;55.700;38.270;2023-02-26T16:05:54;11.23;;;4.90;;
55346;SDS011;41218;55.700;38.270;2023-02-26T16:10:56;13.10;;;5.72;;
55346;SDS011;41218;55.700;38.270;2023-02-26T16:16:00;10.75;;;5.10;;
55346;SDS011;41218;55.700;38.270;2023-02-26T16:21:08;13.63;;;5.63;;
55346;SDS011;41218;55.700;38.270;2023-02-26T16:26:22;13.85;;;5.85;;
55346;SDS011;41218;55.700;38.270;2023-02-26T16:31:26;10.50;;;5.38;;
55346;SDS011;41218;55.700;38.270;2023-02-26T16:36:38;12.13;;;5.15;;
55346;SDS011;41218;55.700;38.270;2023-02-26T16:41:40;12.30;;;5.88;;
55346;SDS011;41218;55.700;38.270;2023-02-26T16:46:42;10.15;;;4.80;;
55346;SDS011;41218;55.700;38.270;2023-02-26T16:51:45;13.48;;;5.80;;
55346;SDS011;41218;55.700;38.270;2023-02-26T16:56:49;11.27;;;5.47;;
55346;SDS011;41218;55.700;38.270;2023-02-26T17:02:13;12.32;;;5.32;;
55346;SDS011;41218;55.700;38.270;2023-02-26T17:07:25;11.07;;;5.55;;
55346;SDS011;41218;55.700;38.270;2023-02-26T17:12:39;12.43;;;5.55;;
55346;SDS011;41218;55.700;38.270;2023-02-26T17:17:47;13.55;;;5.97;;
55346;SDS011;41218;55.700;38.270;2023-02-26T17:22:48;8.38;;;4.22;;
55346;SDS011;41218;55.700;38.270;2023-02-26T17:27:50;13.75;;;5.25;;
55346;SDS011;41218;55.700;38.270;2023-02-26T17:32:51;10.88;;;5.28;;
55346;SDS011;41218;55.700;38.270;2023-02-26T17:37:52;13.57;;;5.00;;
55346;SDS011;41218;55.700;38.270;2023-02-26T17:42:53;12.90;;;5.50;;
55346;SDS011;41218;55.700;38.270;2023-02-26T17:47:54;9.43;;;4.70;;
55346;SDS011;41218;55.700;38.270;2023-02-26T17:52:55;12.27;;;5.15;;
55346;SDS011;41218;55.700;38.270;2023-02-26T17:57:57;7.78;;;3.30;;
55346;SDS011;41218;55.700;38.270;2023-02-26T18:07:59;9.30;;;4.33;;
55346;SDS011;41218;55.700;38.270;2023-02-26T18:13:00;9.57;;;4.00;;
55346;SDS011;41218;55.700;38.270;2023-02-26T18:18:02;10.60;;;4.50;;
55346;SDS011;41218;55.700;38.270;2023-02-26T18:23:05;12.48;;;4.90;;
55346;SDS011;41218;55.700;38.270;2023-02-26T18:33:12;11.57;;;4.47;;
55346;SDS011;41218;55.700;38.270;2023-02-26T18:38:17;6.18;;;3.20;;
55346;SDS011;41218;55.700;38.270;2023-02-26T18:43:19;8.23;;;4.07;;
55346;SDS011;41218;55.700;38.270;2023-02-26T18:48:20;9.68;;;4.07;;
55346;SDS011;41218;55.700;38.270;2023-02-26T18:53:21;4.65;;;2.33;;
55346;SDS011;41218;55.700;38.270;2023-02-26T18:58:23;11.35;;;4.43;;
55346;SDS011;41218;55.700;38.270;2023-02-26T19:03:24;9.70;;;4.43;;
55346;SDS011;41218;55.700;38.270;2023-02-26T19:13:26;9.33;;;4.13;;
55346;SDS011;41218;55.700;38.270;2023-02-26T19:18:26;7.10;;;3.67;;
55346;SDS011;41218;55.700;38.270;2023-02-26T19:23:27;8.82;;;3.65;;
55346;SDS011;41218;55.700;38.270;2023-02-26T19:28:28;8.33;;;3.33;;
55346;SDS011;41218;55.700;38.270;2023-02-26T19:33:29;10.63;;;4.22;;
55346;SDS011;41218;55.700;38.270;2023-02-26T19:38:30;11.00;;;4.13;;
55346;SDS011;41218;55.700;38.270;2023-02-26T19:43:31;9.10;;;3.60;;
55346;SDS011;41218;55.700;38.270;2023-02-26T19:48:31;7.77;;;3.80;;
55346;SDS011;41218;55.700;38.270;2023-02-26T19:53:32;9.30;;;3.47;;
55346;SDS011;41218;55.700;38.270;2023-02-26T19:58:33;7.55;;;3.53;;
55346;SDS011;41218;55.700;38.270;2023-02-26T20:03:34;3.73;;;2.00;;
55346;SDS011;41218;55.700;38.270;2023-02-26T20:08:35;7.28;;;3.25;;
55346;SDS011;41218;55.700;38.270;2023-02-26T20:13:35;5.73;;;3.00;;
55346;SDS011;41218;55.700;38.270;2023-02-26T20:18:36;7.40;;;3.43;;
55346;SDS011;41218;55.700;38.270;2023-02-26T20:23:37;7.57;;;3.85;;
55346;SDS011;41218;55.700;38.270;2023-02-26T20:33:39;8.00;;;3.60;;
55346;SDS011;41218;55.700;38.270;2023-02-26T20:38:40;8.68;;;3.40;;
55346;SDS011;41218;55.700;38.270;2023-02-26T20:48:42;7.07;;;2.93;;
55346;SDS011;41218;55.700;38.270;2023-02-26T20:53:43;9.70;;;4.43;;
55346;SDS011;41218;55.700;38.270;2023-02-26T20:58:45;10.55;;;4.00;;
55346;SDS011;41218;55.700;38.270;2023-02-26T21:03:46;7.65;;;3.28;;
55346;SDS011;41218;55.700;38.270;2023-02-26T21:08:47;8.20;;;3.50;;
55346;SDS011;41218;55.700;38.270;2023-02-26T21:13:47;4.30;;;2.63;;
55346;SDS011;41218;55.700;38.270;2023-02-26T21:18:48;5.57;;;2.47;;
55346;SDS011;41218;55.700;38.270;2023-02-26T21:23:48;8.23;;;3.33;;
55346;SDS011;41218;55.700;38.270;2023-02-26T21:28:50;7.43;;;3.08;;
55346;SDS011;41218;55.700;38.270;2023-02-26T21:33:50;7.03;;;3.23;;
55346;SDS011;41218;55.700;38.270;2023-02-26T21:38:51;7.97;;;3.40;;
55346;SDS011;41218;55.700;38.270;2023-02-26T21:43:52;4.28;;;2.28;;
55346;SDS011;41218;55.700;38.270;2023-02-26T21:48:52;7.80;;;3.03;;
55346;SDS011;41218;55.700;38.270;2023-02-26T21:53:53;8.93;;;3.23;;
55346;SDS011;41218;55.700;38.270;2023-02-26T21:58:53;6.30;;;3.00;;
55346;SDS011;41218;55.700;38.270;2023-02-26T22:03:54;5.72;;;2.88;;
55346;SDS011;41218;55.700;38.270;2023-02-26T22:08:55;6.67;;;3.27;;
55346;SDS011;41218;55.700;38.270;2023-02-26T22:13:55;4.73;;;2.20;;
55346;SDS011;41218;55.700;38.270;2023-02-26T22:18:56;2.60;;;1.63;;
55346;SDS011;41218;55.700;38.270;2023-02-26T22:23:56;6.03;;;2.97;;
55346;SDS011;41218;55.700;38.270;2023-02-26T22:28:59;5.22;;;2.08;;
55346;SDS011;41218;55.700;38.270;2023-02-26T22:34:00;5.53;;;2.47;;
55346;SDS011;41218;55.700;38.270;2023-02-26T22:39:01;1.35;;;1.10;;
55346;SDS011;41218;55.700;38.270;2023-02-26T22:44:03;4.47;;;2.20;;
55346;SDS011;41218;55.700;38.270;2023-02-26T22:49:04;3.92;;;1.92;;
55346;SDS011;41218;55.700;38.270;2023-02-26T22:54:05;3.55;;;2.15;;
55346;SDS011;41218;55.700;38.270;2023-02-26T22:59:05;5.27;;;1.53;;
55346;SDS011;41218;55.700;38.270;2023-02-26T23:04:06;5.30;;;2.67;;
55346;SDS011;41218;55.700;38.270;2023-02-26T23:09:06;4.40;;;2.40;;
55346;SDS011;41218;55.700;38.270;2023-02-26T23:14:07;6.30;;;2.90;;
55346;SDS011;41218;55.700;38.270;2023-02-26T23:19:07;5.90;;;2.53;;
55346;SDS011;41218;55.700;38.270;2023-02-26T23:24:09;7.22;;;2.97;;
55346;SDS011;41218;55.700;38.270;2023-02-26T23:29:09;4.07;;;1.80;;
55346;SDS011;41218;55.700;38.270;2023-02-26T23:34:10;4.15;;;1.92;;
55346;SDS011;41218;55.700;38.270;2023-02-26T23:39:10;7.20;;;3.10;;
55346;SDS011;41218;55.700;38.270;2023-02-26T23:44:12;6.63;;;3.00;;
55346;SDS011;41218;55.700;38.270;2023-02-26T23:49:13;6.00;;;2.83;;
55346;SDS011;41218;55.700;38.270;2023-02-26T23:54:15;4.50;;;2.45;;
55346;SDS011;41218;55.700;38.270;2023-02-26T23:59:15;6.17;;;2.73;;
